Verdon, Nebraska
Current Conditions -  °F | °C
As of 7:53 AM on Monday 20 Oct 2014 (Local Time) from KFNB Reporting Station
Clear Clear  
Wind Chill: 45°   Ceiling: Unl
Heat Index: 48°   Visibility: 10mi
Dew Point: 46°   Wind: 7mph
Humidity: 93%   Direction: 320°NW
Pressure: 30.02"   Gusts: NA
Location:  40.15°N, 95.71°W
Report Text: KFNB 201253Z AUTO 32006KT 10SM CLR 09/08 A3002 RMK AO2 SLP166 T00890078
Loading
Personal Weather Stations






























Interactive Weather Map
Tropical Storm Tracking
New forecast layout! Learn more

10-Day Weather Forecast

Advertisements
Track Severe Weather on mobile